createdAt,value
2022-12-03T00:00:42.199Z,4.85
2022-12-03T00:03:12.435Z,4.87
2022-12-03T00:05:48.792Z,4.85
2022-12-03T00:08:19.080Z,4.85
2022-12-03T00:10:49.046Z,4.84
2022-12-03T00:13:18.821Z,4.84
2022-12-03T00:15:51.339Z,4.85
2022-12-03T00:18:21.245Z,4.84
2022-12-03T00:20:50.960Z,4.83
2022-12-03T00:23:20.684Z,4.80
2022-12-03T00:25:50.398Z,4.77
2022-12-03T00:28:20.141Z,4.74
2022-12-03T00:30:54.269Z,4.72
2022-12-03T00:33:24.687Z,4.70
2022-12-03T00:35:54.479Z,4.70
2022-12-03T00:38:24.412Z,4.70
2022-12-03T00:40:54.280Z,4.70
2022-12-03T00:43:24.117Z,4.71
2022-12-03T00:45:56.724Z,4.70
2022-12-03T00:48:26.509Z,4.72
2022-12-03T00:50:56.201Z,4.71
2022-12-03T00:53:25.952Z,4.70
2022-12-03T00:55:55.662Z,4.69
2022-12-03T00:58:25.386Z,4.68
2022-12-03T01:00:58.000Z,4.67
2022-12-03T01:03:27.743Z,4.69
2022-12-03T01:05:57.516Z,4.73
2022-12-03T01:08:27.230Z,4.75
2022-12-03T01:10:56.969Z,4.77
2022-12-03T01:13:26.680Z,4.81
2022-12-03T01:15:59.069Z,4.83
2022-12-03T01:18:28.883Z,4.85
2022-12-03T01:20:58.634Z,4.87
2022-12-03T01:23:28.319Z,4.88
2022-12-03T01:25:58.029Z,4.88
2022-12-03T01:28:29.412Z,4.89
2022-12-03T01:31:14.149Z,4.90
2022-12-03T01:33:43.932Z,4.92
2022-12-03T01:36:13.643Z,4.93
2022-12-03T01:38:43.312Z,4.95
2022-12-03T01:41:13.112Z,4.97
2022-12-03T01:43:43.007Z,4.99
2022-12-03T01:46:17.451Z,4.99
2022-12-03T01:48:48.360Z,5.01
2022-12-03T01:51:18.688Z,5.03
2022-12-03T01:53:48.920Z,5.04
2022-12-03T01:56:20.993Z,5.06
2022-12-03T01:58:51.116Z,5.08
2022-12-03T02:01:23.795Z,5.08
2022-12-03T02:03:53.664Z,5.08
2022-12-03T02:06:26.061Z,5.08
2022-12-03T02:09:00.086Z,5.10
2022-12-03T02:11:34.675Z,5.10
2022-12-03T02:14:08.731Z,5.11
2022-12-03T02:16:43.431Z,5.13
2022-12-03T02:19:20.131Z,5.13
2022-12-03T02:21:57.683Z,5.15
2022-12-03T02:24:35.835Z,5.15
2022-12-03T02:27:09.106Z,5.16
2022-12-03T02:29:39.200Z,5.14
2022-12-03T02:32:09.112Z,5.15
2022-12-03T02:34:41.765Z,5.13
2022-12-03T02:37:16.471Z,5.16
2022-12-03T02:39:50.326Z,5.16
2022-12-03T02:42:38.414Z,5.17
2022-12-03T02:45:12.051Z,5.15
2022-12-03T02:47:45.668Z,5.13
2022-12-03T02:50:19.917Z,5.13
2022-12-03T02:52:50.718Z,5.09
2022-12-03T02:55:21.175Z,5.08
2022-12-03T02:57:54.377Z,5.07
2022-12-03T03:00:25.302Z,5.05
2022-12-03T03:02:55.728Z,5.04
2022-12-03T03:05:26.878Z,5.02
2022-12-03T03:07:57.924Z,5.02
2022-12-03T03:10:28.224Z,5.02
2022-12-03T03:13:01.103Z,5.03
2022-12-03T03:15:31.012Z,4.99
2022-12-03T03:18:00.828Z,4.98
2022-12-03T03:20:30.562Z,4.97
2022-12-03T03:23:09.080Z,4.96
2022-12-03T03:25:38.826Z,4.96
2022-12-03T03:28:11.280Z,4.96
2022-12-03T03:30:43.904Z,4.96
2022-12-03T03:33:15.405Z,4.95
2022-12-03T03:35:46.502Z,4.95
2022-12-03T03:38:17.021Z,4.95
2022-12-03T03:40:47.168Z,4.95
2022-12-03T03:43:19.672Z,4.94
2022-12-03T03:45:49.404Z,4.93
2022-12-03T03:48:19.325Z,4.94
2022-12-03T03:50:50.045Z,4.94
2022-12-03T03:53:20.687Z,4.92
2022-12-03T03:55:50.571Z,4.91
2022-12-03T03:58:22.985Z,4.88
2022-12-03T04:00:52.730Z,4.87
2022-12-03T04:03:22.639Z,4.87
2022-12-03T04:05:53.141Z,4.85
2022-12-03T04:08:22.867Z,4.83
2022-12-03T04:11:04.973Z,4.85
2022-12-03T04:13:37.281Z,4.83
2022-12-03T04:16:07.513Z,4.80
2022-12-03T04:18:46.204Z,4.80
2022-12-03T04:21:29.902Z,4.82
2022-12-03T04:23:59.616Z,4.79
2022-12-03T04:26:41.921Z,4.79
2022-12-03T04:29:15.224Z,4.79
2022-12-03T04:31:57.539Z,4.78
2022-12-03T04:34:40.234Z,4.80
2022-12-03T04:37:10.418Z,4.77
2022-12-03T04:39:40.693Z,4.77
2022-12-03T04:42:10.827Z,4.75
2022-12-03T04:44:43.183Z,4.77
2022-12-03T04:47:15.450Z,4.75
2022-12-03T04:49:46.877Z,4.76
2022-12-03T04:52:19.361Z,4.74
2022-12-03T04:54:49.444Z,4.73
2022-12-03T04:57:19.141Z,4.73
2022-12-03T04:59:51.470Z,4.73
2022-12-03T05:02:21.230Z,4.71
2022-12-03T05:04:51.286Z,4.71
2022-12-03T05:07:21.138Z,4.71
2022-12-03T05:09:51.004Z,4.72
2022-12-03T05:12:20.822Z,4.71
2022-12-03T05:14:53.564Z,4.71
2022-12-03T05:17:23.515Z,4.68
2022-12-03T05:20:05.663Z,4.67
2022-12-03T05:22:35.468Z,4.65
2022-12-03T05:25:05.233Z,4.63
2022-12-03T05:27:35.044Z,4.61
2022-12-03T05:30:08.584Z,4.63
2022-12-03T05:32:38.661Z,4.64
2022-12-03T05:35:09.290Z,4.62
2022-12-03T05:37:38.985Z,4.59
2022-12-03T05:40:10.422Z,4.58
2022-12-03T05:42:52.575Z,4.59
2022-12-03T05:45:26.355Z,4.58
2022-12-03T05:47:56.920Z,4.55
2022-12-03T05:50:28.591Z,4.53
2022-12-03T05:52:58.769Z,4.53
2022-12-03T05:55:29.022Z,4.54
2022-12-03T05:57:58.994Z,4.52
2022-12-03T06:00:34.571Z,4.52
2022-12-03T06:03:08.300Z,4.48
2022-12-03T06:05:38.100Z,4.44
2022-12-03T06:08:08.188Z,4.44
2022-12-03T06:10:38.029Z,4.45
2022-12-03T06:13:07.840Z,4.41
2022-12-03T06:15:43.667Z,4.44
2022-12-03T06:18:14.042Z,4.45
2022-12-03T06:20:43.821Z,4.47
2022-12-03T06:23:13.525Z,4.47
2022-12-03T06:25:43.473Z,4.48
2022-12-03T06:28:13.200Z,4.48
2022-12-03T06:30:45.678Z,4.48
2022-12-03T06:33:15.625Z,4.47
2022-12-03T06:35:45.328Z,4.47
2022-12-03T06:38:15.221Z,4.48
2022-12-03T06:40:45.007Z,4.46
2022-12-03T06:43:14.710Z,4.46
2022-12-03T06:45:48.080Z,4.45
2022-12-03T06:48:18.145Z,4.44
2022-12-03T06:50:47.970Z,4.40
2022-12-03T06:53:17.648Z,4.42
2022-12-03T06:55:47.387Z,4.43
2022-12-03T06:58:17.113Z,4.47
2022-12-03T07:00:49.604Z,4.47
2022-12-03T07:03:19.372Z,4.47
2022-12-03T07:05:49.239Z,4.45
2022-12-03T07:08:19.058Z,4.43
2022-12-03T07:10:48.808Z,4.42
2022-12-03T07:13:18.571Z,4.41
2022-12-03T07:15:51.084Z,4.39
2022-12-03T07:18:21.065Z,4.36
2022-12-03T07:20:50.808Z,4.35
2022-12-03T07:23:20.568Z,4.38
2022-12-03T07:25:50.256Z,4.36
2022-12-03T07:28:19.984Z,4.34
2022-12-03T07:30:52.392Z,4.36
2022-12-03T07:33:22.108Z,4.34
2022-12-03T07:35:51.820Z,4.33
2022-12-03T07:38:27.254Z,4.33
2022-12-03T07:40:56.982Z,4.34
2022-12-03T07:43:26.703Z,4.37
2022-12-03T07:45:59.042Z,4.36
2022-12-03T07:48:28.792Z,4.35
2022-12-03T07:50:58.660Z,4.37
2022-12-03T07:53:28.404Z,4.37
2022-12-03T07:55:58.147Z,4.36
2022-12-03T07:58:27.827Z,4.33
2022-12-03T08:01:00.746Z,4.31
2022-12-03T08:03:30.457Z,4.30
2022-12-03T08:06:00.277Z,4.28
2022-12-03T08:08:30.028Z,4.26
2022-12-03T08:10:59.798Z,4.22
2022-12-03T08:13:30.462Z,4.20
2022-12-03T08:16:13.588Z,4.19
2022-12-03T08:18:43.365Z,4.17
2022-12-03T08:21:15.332Z,4.18
2022-12-03T08:23:45.541Z,4.16
2022-12-03T08:26:25.226Z,4.11
2022-12-03T08:28:55.653Z,4.08
2022-12-03T08:31:33.691Z,4.07
2022-12-03T08:34:18.819Z,4.09
2022-12-03T08:36:49.240Z,4.08
2022-12-03T08:39:33.365Z,4.06
2022-12-03T08:42:27.359Z,4.03
2022-12-03T08:44:57.671Z,4.00
2022-12-03T08:47:32.968Z,3.97
2022-12-03T08:50:16.774Z,3.97
2022-12-03T08:52:46.468Z,3.97
2022-12-03T08:55:36.950Z,3.97
2022-12-03T08:58:21.169Z,3.93
2022-12-03T09:00:51.466Z,3.93
2022-12-03T09:03:24.568Z,3.95
2022-12-03T09:05:54.280Z,3.95
2022-12-03T09:08:23.962Z,3.93
2022-12-03T09:10:53.699Z,3.92
2022-12-03T09:13:23.424Z,3.91
2022-12-03T09:15:53.228Z,3.88
2022-12-03T09:18:25.559Z,3.89
2022-12-03T09:20:56.571Z,3.85
2022-12-03T09:23:26.357Z,3.85
2022-12-03T09:25:56.036Z,3.85
2022-12-03T09:28:25.925Z,3.85
2022-12-03T09:30:55.612Z,3.82
2022-12-03T09:33:27.907Z,3.80
2022-12-03T09:35:57.622Z,3.74
2022-12-03T09:38:27.474Z,3.69
2022-12-03T09:40:57.368Z,3.69
2022-12-03T09:43:49.399Z,3.69
2022-12-03T09:46:16.931Z,3.71
2022-12-03T09:48:49.816Z,3.71
2022-12-03T09:51:20.059Z,3.69
2022-12-03T09:53:50.755Z,3.69
2022-12-03T09:56:24.860Z,3.66
2022-12-03T09:58:55.579Z,3.68
2022-12-03T10:01:30.117Z,3.68
2022-12-03T10:04:02.994Z,3.71
2022-12-03T10:06:33.640Z,3.72
2022-12-03T10:09:03.517Z,3.73
2022-12-03T10:11:33.952Z,3.75
2022-12-03T10:14:03.838Z,3.76
2022-12-03T10:16:33.989Z,3.76
2022-12-03T10:19:06.412Z,3.78
2022-12-03T10:21:40.357Z,3.79
2022-12-03T10:24:31.376Z,3.79
2022-12-03T10:27:02.947Z,3.81
2022-12-03T10:29:35.064Z,3.84
2022-12-03T10:32:06.549Z,3.85
2022-12-03T10:34:41.304Z,3.85
2022-12-03T10:37:19.550Z,3.85
2022-12-03T10:39:58.102Z,3.82
2022-12-03T10:42:29.462Z,3.81
2022-12-03T10:45:19.649Z,3.83
2022-12-03T10:48:14.163Z,3.83
2022-12-03T10:51:05.768Z,3.83
2022-12-03T10:53:37.247Z,3.81
2022-12-03T10:56:10.337Z,3.81
2022-12-03T10:58:41.812Z,3.78
2022-12-03T11:01:19.390Z,3.76
2022-12-03T11:03:50.023Z,3.73
2022-12-03T11:06:24.524Z,3.74
2022-12-03T11:09:00.427Z,3.73
2022-12-03T11:11:34.001Z,3.72
2022-12-03T11:14:05.085Z,3.73
2022-12-03T11:17:11.568Z,3.75
2022-12-03T11:19:55.211Z,3.73
2022-12-03T11:22:47.488Z,3.73
2022-12-03T11:25:50.521Z,3.75
2022-12-03T11:28:54.329Z,3.73
2022-12-03T11:31:39.622Z,3.73
2022-12-03T11:34:51.472Z,3.74
2022-12-03T11:37:25.476Z,3.75
2022-12-03T11:40:28.157Z,3.77
2022-12-03T11:42:57.866Z,3.75
2022-12-03T11:45:34.673Z,3.75
2022-12-03T11:48:15.903Z,3.76
2022-12-03T11:50:47.571Z,3.74
2022-12-03T11:53:23.053Z,3.75
2022-12-03T11:56:06.582Z,3.76
2022-12-03T11:58:38.331Z,3.72
2022-12-03T12:01:10.312Z,3.67
2022-12-03T12:03:47.050Z,3.65
2022-12-03T12:06:19.670Z,3.64
2022-12-03T12:08:59.964Z,3.65
2022-12-03T12:11:34.621Z,3.63
2022-12-03T12:14:06.436Z,3.61
2022-12-03T12:16:46.255Z,3.60
2022-12-03T12:19:40.009Z,3.59
2022-12-03T12:22:31.425Z,3.53
2022-12-03T12:25:02.507Z,3.46
2022-12-03T12:27:45.295Z,3.45
2022-12-03T12:30:18.393Z,3.41
2022-12-03T12:32:50.228Z,3.42
2022-12-03T12:35:23.261Z,3.42
2022-12-03T12:37:59.785Z,3.42
2022-12-03T12:40:33.764Z,3.44
2022-12-03T12:43:13.206Z,3.47
2022-12-03T12:45:46.203Z,3.48
2022-12-03T12:48:23.786Z,3.52
2022-12-03T12:51:00.138Z,3.54
2022-12-03T12:53:31.686Z,3.58
2022-12-03T12:56:03.934Z,3.60
2022-12-03T12:58:36.821Z,3.58
2022-12-03T13:01:10.421Z,3.56
2022-12-03T13:03:42.278Z,3.52
2022-12-03T13:06:16.324Z,3.51
2022-12-03T13:08:48.396Z,3.52
2022-12-03T13:11:37.086Z,3.52
2022-12-03T13:14:17.868Z,3.55
2022-12-03T13:16:48.689Z,3.54
2022-12-03T13:19:26.703Z,3.55
2022-12-03T13:21:57.776Z,3.52
2022-12-03T13:24:35.237Z,3.50
2022-12-03T13:27:23.042Z,3.52
2022-12-03T13:29:58.941Z,3.50
2022-12-03T13:32:32.942Z,3.48
2022-12-03T13:35:07.678Z,3.47
2022-12-03T13:37:37.511Z,3.46
2022-12-03T13:40:15.079Z,3.44
2022-12-03T13:42:46.628Z,3.42
2022-12-03T13:45:37.578Z,3.43
2022-12-03T13:48:21.808Z,3.40
2022-12-03T13:50:52.312Z,3.36
2022-12-03T13:53:27.623Z,3.36
2022-12-03T13:56:03.665Z,3.35
2022-12-03T13:58:33.376Z,3.35
2022-12-03T14:01:05.746Z,3.38
2022-12-03T14:03:35.546Z,3.38
2022-12-03T14:06:05.241Z,3.38
2022-12-03T14:08:34.937Z,3.37
2022-12-03T14:11:04.689Z,3.37
2022-12-03T14:13:34.381Z,3.38
2022-12-03T14:16:07.177Z,3.41
2022-12-03T14:18:36.925Z,3.40
2022-12-03T14:21:06.697Z,3.42
2022-12-03T14:23:36.483Z,3.42
2022-12-03T14:26:06.191Z,3.43
2022-12-03T14:28:35.980Z,3.43
2022-12-03T14:31:08.616Z,3.44
2022-12-03T14:33:38.400Z,3.44
2022-12-03T14:36:08.831Z,3.43
2022-12-03T14:38:38.643Z,3.42
2022-12-03T14:41:28.835Z,3.42
2022-12-03T14:43:58.528Z,3.41
2022-12-03T14:46:30.868Z,3.39
2022-12-03T14:49:00.582Z,3.38
2022-12-03T14:51:30.377Z,3.38
2022-12-03T14:54:00.120Z,3.36
2022-12-03T14:56:29.836Z,3.36
2022-12-03T14:58:59.544Z,3.36
2022-12-03T15:01:32.024Z,3.34
2022-12-03T15:04:01.807Z,3.30
2022-12-03T15:06:31.588Z,3.31
2022-12-03T15:09:01.481Z,3.31
2022-12-03T15:11:31.362Z,3.28
2022-12-03T15:14:01.100Z,3.27
2022-12-03T15:16:33.530Z,3.23
2022-12-03T15:19:03.409Z,3.18
2022-12-03T15:21:35.086Z,3.13
2022-12-03T15:24:05.394Z,3.12
2022-12-03T15:26:35.210Z,3.09
2022-12-03T15:29:05.025Z,3.05
2022-12-03T15:31:37.606Z,3.01
2022-12-03T15:34:07.368Z,2.97
2022-12-03T15:36:37.067Z,2.93
2022-12-03T15:39:06.872Z,2.91
2022-12-03T15:41:36.757Z,2.85
2022-12-03T15:44:06.546Z,2.82
2022-12-03T15:46:39.000Z,2.81
2022-12-03T15:49:08.752Z,2.80
2022-12-03T15:51:38.468Z,2.79
2022-12-03T15:54:08.471Z,2.80
2022-12-03T15:56:38.223Z,2.81
2022-12-03T15:59:08.024Z,2.80
2022-12-03T16:01:40.396Z,2.81
2022-12-03T16:04:10.103Z,2.82
2022-12-03T16:06:39.823Z,2.82
2022-12-03T16:09:09.499Z,2.83
2022-12-03T16:11:39.211Z,2.84
2022-12-03T16:14:08.894Z,2.84
2022-12-03T16:16:41.260Z,2.83
2022-12-03T16:19:11.025Z,2.84
2022-12-03T16:21:40.700Z,2.87
2022-12-03T16:24:10.608Z,2.86
2022-12-03T16:26:40.399Z,2.87
2022-12-03T16:29:10.139Z,2.86
2022-12-03T16:31:42.761Z,2.86
2022-12-03T16:34:12.601Z,2.88
2022-12-03T16:36:42.319Z,2.90
2022-12-03T16:39:12.020Z,2.93
2022-12-03T16:41:41.776Z,2.93
2022-12-03T16:44:20.101Z,2.94
2022-12-03T16:46:52.806Z,2.95
2022-12-03T16:49:22.535Z,2.97
2022-12-03T16:51:52.260Z,2.98
2022-12-03T16:54:21.945Z,2.97
2022-12-03T16:56:51.687Z,2.98
2022-12-03T16:59:21.468Z,3.01
2022-12-03T17:01:53.783Z,3.03
2022-12-03T17:04:23.596Z,3.05
2022-12-03T17:06:53.262Z,3.07
2022-12-03T17:09:22.907Z,3.08
2022-12-03T17:11:52.705Z,3.09
2022-12-03T17:14:22.782Z,3.10
2022-12-03T17:16:55.188Z,3.11
2022-12-03T17:19:24.924Z,3.11
2022-12-03T17:21:54.617Z,3.11
2022-12-03T17:24:24.384Z,3.10
2022-12-03T17:26:54.061Z,3.11
2022-12-03T17:29:23.785Z,3.13
2022-12-03T17:31:56.186Z,3.15
2022-12-03T17:34:25.940Z,3.16
2022-12-03T17:36:55.606Z,3.12
2022-12-03T17:39:25.596Z,3.12
2022-12-03T17:41:55.350Z,3.10
2022-12-03T17:44:25.032Z,3.08
2022-12-03T17:46:57.404Z,3.06
2022-12-03T17:49:31.515Z,3.03
2022-12-03T17:52:01.774Z,3.01
2022-12-03T17:54:55.242Z,2.97
2022-12-03T17:57:21.402Z,2.92
2022-12-03T17:59:51.226Z,2.93
2022-12-03T18:02:23.826Z,2.91
2022-12-03T18:04:53.496Z,2.86
2022-12-03T18:07:23.184Z,2.86
2022-12-03T18:09:53.446Z,2.88
2022-12-03T18:12:23.385Z,2.87
2022-12-03T18:14:53.064Z,2.86
2022-12-03T18:17:25.405Z,2.86
2022-12-03T18:19:55.331Z,2.83
2022-12-03T18:22:25.947Z,2.80
2022-12-03T18:24:55.661Z,2.77
2022-12-03T18:27:26.195Z,2.76
2022-12-03T18:29:56.381Z,2.75
2022-12-03T18:32:30.022Z,2.74
2022-12-03T18:35:00.776Z,2.75
2022-12-03T18:37:31.739Z,2.75
2022-12-03T18:40:02.081Z,2.75
2022-12-03T18:42:32.493Z,2.73
2022-12-03T18:45:02.556Z,2.72
2022-12-03T18:47:34.954Z,2.70
2022-12-03T18:50:04.752Z,2.69
2022-12-03T18:52:34.451Z,2.65
2022-12-03T18:55:04.179Z,2.62
2022-12-03T18:57:33.879Z,2.60
2022-12-03T19:00:03.596Z,2.56
2022-12-03T19:03:01.857Z,2.53
2022-12-03T19:05:25.634Z,2.51
2022-12-03T19:07:56.623Z,2.49
2022-12-03T19:10:26.696Z,2.46
2022-12-03T19:12:56.424Z,2.42
2022-12-03T19:15:26.139Z,2.42
2022-12-03T19:17:58.556Z,2.41
2022-12-03T19:20:28.289Z,2.40
2022-12-03T19:22:57.968Z,2.36
2022-12-03T19:25:27.635Z,2.37
2022-12-03T19:27:57.846Z,2.34
2022-12-03T19:30:27.625Z,2.35
2022-12-03T19:32:59.991Z,2.35
2022-12-03T19:35:29.744Z,2.33
2022-12-03T19:38:00.912Z,2.33
2022-12-03T19:40:32.278Z,2.33
2022-12-03T19:43:03.159Z,2.33
2022-12-03T19:45:32.900Z,2.32
2022-12-03T19:48:05.497Z,2.28
2022-12-03T19:50:35.272Z,2.22
2022-12-03T19:53:05.021Z,2.17
2022-12-03T19:55:38.304Z,2.13
2022-12-03T19:58:07.956Z,2.09
2022-12-03T20:00:38.289Z,2.06
2022-12-03T20:03:10.652Z,2.04
2022-12-03T20:05:41.659Z,2.00
2022-12-03T20:08:11.434Z,2.00
2022-12-03T20:10:41.160Z,2.01
2022-12-03T20:13:10.842Z,2.01
2022-12-03T20:15:40.541Z,2.01
2022-12-03T20:18:12.823Z,2.00
2022-12-03T20:20:42.527Z,2.01
2022-12-03T20:23:12.192Z,2.00
2022-12-03T20:25:41.924Z,2.01
2022-12-03T20:28:11.600Z,2.00
2022-12-03T20:30:41.952Z,2.00
2022-12-03T20:33:14.388Z,2.01
2022-12-03T20:35:44.054Z,2.00
2022-12-03T20:38:13.720Z,1.97
2022-12-03T20:40:43.496Z,1.94
2022-12-03T20:43:13.209Z,1.93
2022-12-03T20:45:42.905Z,1.92
2022-12-03T20:48:15.408Z,1.90
2022-12-03T20:50:45.078Z,1.88
2022-12-03T20:53:24.686Z,1.85
2022-12-03T20:55:58.231Z,1.85
2022-12-03T20:58:28.365Z,1.83
2022-12-03T21:00:58.135Z,1.84
2022-12-03T21:03:30.481Z,1.82
2022-12-03T21:06:02.080Z,1.81
2022-12-03T21:08:41.021Z,1.82
2022-12-03T21:11:12.320Z,1.80
2022-12-03T21:13:44.032Z,1.75
2022-12-03T21:16:16.674Z,1.73
2022-12-03T21:18:49.156Z,1.72
2022-12-03T21:21:19.810Z,1.70
2022-12-03T21:23:50.283Z,1.67
2022-12-03T21:26:22.035Z,1.62
2022-12-03T21:28:53.563Z,1.63
2022-12-03T21:31:25.320Z,1.62
2022-12-03T21:33:59.249Z,1.60
2022-12-03T21:36:29.159Z,1.60
2022-12-03T21:38:58.837Z,1.60
2022-12-03T21:41:28.687Z,1.58
2022-12-03T21:43:58.383Z,1.56
2022-12-03T21:47:09.359Z,1.54
2022-12-03T21:49:20.511Z,1.50
2022-12-03T21:51:50.232Z,1.47
2022-12-03T21:54:20.509Z,1.46
2022-12-03T21:56:50.233Z,1.46
2022-12-03T21:59:19.915Z,1.47
2022-12-03T22:01:49.639Z,1.47
2022-12-03T22:04:21.969Z,1.45
2022-12-03T22:06:51.645Z,1.44
2022-12-03T22:09:26.318Z,1.40
2022-12-03T22:11:59.427Z,1.38
2022-12-03T22:14:29.161Z,1.35
2022-12-03T22:16:58.891Z,1.33
2022-12-03T22:19:31.284Z,1.33
2022-12-03T22:22:03.811Z,1.30
2022-12-03T22:24:33.601Z,1.27
2022-12-03T22:27:05.045Z,1.25
2022-12-03T22:29:34.871Z,1.22
2022-12-03T22:32:04.796Z,1.23
2022-12-03T22:34:38.015Z,1.22
2022-12-03T22:37:07.881Z,1.21
2022-12-03T22:39:37.760Z,1.21
2022-12-03T22:42:07.896Z,1.23
2022-12-03T22:44:37.631Z,1.26
2022-12-03T22:47:07.885Z,1.28
2022-12-03T22:49:40.261Z,1.28
2022-12-03T22:52:10.532Z,1.28
2022-12-03T22:54:40.233Z,1.28
2022-12-03T22:57:09.953Z,1.27
2022-12-03T22:59:39.715Z,1.25
2022-12-03T23:02:09.429Z,1.26
2022-12-03T23:04:41.757Z,1.30
2022-12-03T23:07:11.463Z,1.33
2022-12-03T23:09:41.173Z,1.36
2022-12-03T23:12:10.897Z,1.38
2022-12-03T23:14:40.559Z,1.41
2022-12-03T23:17:10.269Z,1.43
2022-12-03T23:19:42.537Z,1.43
2022-12-03T23:22:12.224Z,1.46
2022-12-03T23:24:41.884Z,1.47
2022-12-03T23:27:11.603Z,1.49
2022-12-03T23:29:41.291Z,1.48
2022-12-03T23:32:10.972Z,1.48
2022-12-03T23:34:43.349Z,1.49
2022-12-03T23:37:13.056Z,1.50
2022-12-03T23:39:42.923Z,1.49
2022-12-03T23:42:12.706Z,1.47
2022-12-03T23:44:42.432Z,1.47
2022-12-03T23:47:12.182Z,1.46
2022-12-03T23:49:44.516Z,1.46
2022-12-03T23:52:14.242Z,1.46
2022-12-03T23:54:44.012Z,1.46
2022-12-03T23:57:13.750Z,1.47
2022-12-03T23:59:43.548Z,1.46
